Time;durP1;ratioP1;P1;durP2;ratioP2;P2;SDS_P1;SDS_P2;PMS_P1;PMS_P2;Temp;Humidity;BMP_temperature;BMP_pressure;BME280_temperature;BME280_humidity;BME280_pressure;Samples;Min_cycle;Max_cycle;Signal;HPM_P1;HPM_P2
2022/10/08 00:00:11;;;;;;;11.55;2.58;;;13.00;99.90;;;;;;5069485;28;20036;-90
2022/10/08 00:02:37;;;;;;;13.60;2.10;;;13.00;99.90;;;;;;5069558;28;20074;-90
2022/10/08 00:05:03;;;;;;;13.05;3.95;;;13.00;99.90;;;;;;5069903;28;20033;-91
2022/10/08 00:07:28;;;;;;;12.95;3.15;;;13.10;99.90;;;;;;5052571;28;20123;-91
2022/10/08 00:09:54;;;;;;;8.65;2.03;;;13.00;99.90;;;;;;5052853;28;20099;-90
2022/10/08 00:12:20;;;;;;;10.18;2.45;;;13.00;99.90;;;;;;5069269;28;20090;-90
2022/10/08 00:14:46;;;;;;;11.13;2.38;;;13.00;99.90;;;;;;5069930;28;20032;-90
2022/10/08 00:17:11;;;;;;;13.07;3.75;;;13.00;99.90;;;;;;5070127;28;20039;-90
2022/10/08 00:19:37;;;;;;;9.02;1.95;;;13.00;99.90;;;;;;5069889;28;20123;-90
2022/10/08 00:22:02;;;;;;;12.65;2.45;;;13.00;99.90;;;;;;5052728;28;20048;-90
2022/10/08 00:24:28;;;;;;;14.88;4.05;;;13.00;99.90;;;;;;5070247;28;20085;-90
2022/10/08 00:26:53;;;;;;;15.50;4.15;;;13.00;99.90;;;;;;5070079;28;20036;-90
2022/10/08 00:29:20;;;;;;;16.33;2.63;;;13.00;99.90;;;;;;5071523;28;20044;-90
2022/10/08 00:31:48;;;;;;;9.68;2.15;;;12.90;99.90;;;;;;5073726;28;20071;-90
2022/10/08 00:34:17;;;;;;;12.65;2.67;;;12.80;99.90;;;;;;5057140;28;20085;-90
2022/10/08 00:36:42;;;;;;;14.98;4.60;;;12.70;99.90;;;;;;5073754;28;20589;-90
2022/10/08 00:39:14;;;;;;;9.73;3.38;;;12.70;99.90;;;;;;5074092;28;20131;-90
2022/10/08 00:41:42;;;;;;;7.68;1.75;;;12.70;99.90;;;;;;5073606;28;20074;-90
2022/10/08 00:44:45;;;;;;;10.07;2.83;;;12.60;99.90;;;;;;5056850;28;20078;-90
2022/10/08 00:47:14;;;;;;;15.00;2.35;;;12.60;99.90;;;;;;5073662;28;20490;-90
2022/10/08 00:49:39;;;;;;;16.00;3.20;;;12.50;99.90;;;;;;5073621;28;20563;-90
2022/10/08 00:52:05;;;;;;;11.35;3.28;;;12.60;99.90;;;;;;5072681;28;20044;-90
2022/10/08 00:54:31;;;;;;;14.95;4.43;;;12.50;99.90;;;;;;5056903;28;20124;-90
2022/10/08 00:56:57;;;;;;;10.05;2.58;;;12.60;99.90;;;;;;5073613;28;20090;-90
2022/10/08 00:59:23;;;;;;;14.98;3.03;;;12.60;99.90;;;;;;5074376;28;20040;-90
2022/10/08 01:01:48;;;;;;;13.90;3.13;;;12.50;99.90;;;;;;5073192;28;20509;-90
2022/10/08 01:04:15;;;;;;;11.82;3.35;;;12.50;99.90;;;;;;5073382;28;20569;-90
2022/10/08 01:06:52;;;;;;;9.68;2.47;;;12.50;99.90;;;;;;5072909;28;20401;-90
2022/10/08 01:09:22;;;;;;;15.48;4.72;;;12.50;99.90;;;;;;5072129;28;20033;-90
2022/10/08 01:12:15;;;;;;;10.23;3.67;;;12.50;99.90;;;;;;5070991;28;20037;-90
2022/10/08 01:14:52;;;;;;;11.65;2.83;;;12.50;99.90;;;;;;5055917;28;20032;-90
2022/10/08 01:17:23;;;;;;;10.57;2.58;;;12.40;99.90;;;;;;5072856;28;20115;-90
2022/10/08 01:20:28;;;;;;;9.05;3.17;;;12.40;99.90;;;;;;5072240;28;20041;-90
2022/10/08 01:23:22;;;;;;;11.40;2.67;;;12.50;99.90;;;;;;4973727;28;20108;-90
2022/10/08 01:26:10;;;;;;;8.95;2.53;;;12.50;99.90;;;;;;4959508;28;20044;-89
2022/10/08 01:28:55;;;;;;;7.25;2.17;;;12.50;99.90;;;;;;4975720;28;20054;-90
2022/10/08 01:31:36;;;;;;;7.47;2.60;;;12.50;99.90;;;;;;4975715;28;20046;-90
2022/10/08 01:34:33;;;;;;;6.10;2.42;;;12.50;99.90;;;;;;4975724;28;20054;-90
2022/10/08 01:37:01;;;;;;;8.52;2.60;;;12.50;99.90;;;;;;4957865;28;20543;-90
2022/10/08 01:39:31;;;;;;;10.75;2.95;;;12.50;99.90;;;;;;4974152;28;20467;-90
2022/10/08 01:42:00;;;;;;;12.52;3.05;;;12.50;99.90;;;;;;4975761;28;20124;-90
2022/10/08 01:44:34;;;;;;;10.43;4.50;;;12.60;99.90;;;;;;4974973;28;20050;-90
2022/10/08 01:47:04;;;;;;;8.88;3.42;;;12.60;99.90;;;;;;4975313;28;20046;-90
2022/10/08 01:49:37;;;;;;;8.32;2.80;;;12.60;99.90;;;;;;4975313;28;20590;-90
2022/10/08 01:52:12;;;;;;;10.23;3.33;;;12.60;99.90;;;;;;4974380;28;20058;-90
2022/10/08 01:54:42;;;;;;;11.00;4.88;;;12.60;99.90;;;;;;4975272;28;20039;-90
2022/10/08 01:57:10;;;;;;;10.32;3.38;;;12.60;99.90;;;;;;4975198;28;20125;-90
2022/10/08 01:59:53;;;;;;;8.68;2.92;;;12.60;99.90;;;;;;5034566;28;20048;-90
2022/10/08 02:02:24;;;;;;;11.85;4.25;;;12.60;99.90;;;;;;5054685;28;20044;-90
2022/10/08 02:04:52;;;;;;;9.73;3.08;;;12.60;99.90;;;;;;5071797;28;20498;-90
2022/10/08 02:07:22;;;;;;;8.15;2.80;;;12.60;99.90;;;;;;5071098;28;20465;-90
2022/10/08 02:09:51;;;;;;;8.57;2.78;;;12.60;99.90;;;;;;5071625;28;20040;-90
2022/10/08 02:12:17;;;;;;;10.18;4.07;;;12.60;99.90;;;;;;5071345;28;20422;-90
2022/10/08 02:14:48;;;;;;;9.75;2.78;;;12.60;99.90;;;;;;5071377;28;20040;-90
2022/10/08 02:17:29;;;;;;;8.30;2.97;;;12.60;99.90;;;;;;5071881;28;20068;-90
2022/10/08 02:20:06;;;;;;;8.93;2.42;;;12.50;99.90;;;;;;5072001;28;20040;-90
2022/10/08 02:22:49;;;;;;;5.93;1.92;;;12.60;99.90;;;;;;5054549;28;20553;-90
2022/10/08 02:25:20;;;;;;;8.80;2.72;;;12.50;99.90;;;;;;5071862;28;20651;-89
2022/10/08 02:27:55;;;;;;;9.13;2.92;;;12.60;99.90;;;;;;5054549;28;20044;-90
2022/10/08 02:30:22;;;;;;;6.65;2.10;;;12.60;99.90;;;;;;5071774;28;20044;-90
2022/10/08 02:32:57;;;;;;;8.98;3.67;;;12.60;99.90;;;;;;5071377;28;20044;-91
2022/10/08 02:35:30;;;;;;;8.65;2.17;;;12.60;99.90;;;;;;5071253;28;20409;-90
2022/10/08 02:38:08;;;;;;;8.63;2.63;;;12.60;99.90;;;;;;5071581;28;20180;-90
2022/10/08 02:40:38;;;;;;;9.48;2.53;;;12.60;99.90;;;;;;5070951;28;20040;-91
2022/10/08 02:43:11;;;;;;;8.82;2.70;;;12.60;99.90;;;;;;5070034;28;20048;-90
2022/10/08 02:45:48;;;;;;;13.05;3.83;;;12.60;99.90;;;;;;5055085;28;20379;-90
2022/10/08 02:48:21;;;;;;;9.32;2.33;;;12.60;99.90;;;;;;5070487;28;20052;-90
2022/10/08 02:50:50;;;;;;;6.60;2.60;;;12.60;99.90;;;;;;5070758;28;20078;-90
2022/10/08 02:53:17;;;;;;;8.95;2.40;;;12.60;99.90;;;;;;5070746;28;20036;-90
2022/10/08 02:56:07;;;;;;;7.93;2.70;;;12.50;99.90;;;;;;5071476;28;20772;-90
2022/10/08 02:58:33;;;;;;;8.73;2.50;;;12.50;99.90;;;;;;5070723;28;20040;-90
2022/10/08 03:01:07;;;;;;;11.48;3.63;;;12.50;99.90;;;;;;5070809;28;20109;-90
2022/10/08 03:03:36;;;;;;;6.63;2.28;;;12.50;99.90;;;;;;5069774;28;20040;-90
2022/10/08 03:06:07;;;;;;;7.72;2.22;;;12.50;99.90;;;;;;5053906;28;20041;-90
2022/10/08 03:08:37;;;;;;;5.60;2.00;;;12.40;99.90;;;;;;5071198;28;20040;-90
2022/10/08 03:11:05;;;;;;;7.28;2.35;;;12.40;99.90;;;;;;5069158;28;20044;-90
2022/10/08 03:13:35;;;;;;;6.20;2.40;;;12.30;99.90;;;;;;5070688;28;20177;-90
2022/10/08 03:16:04;;;;;;;9.40;2.72;;;12.30;99.90;;;;;;5070722;28;20127;-90
2022/10/08 03:18:31;;;;;;;11.02;3.80;;;12.30;99.90;;;;;;5054203;28;20040;-91
2022/10/08 03:20:57;;;;;;;8.65;2.65;;;12.30;99.90;;;;;;5070206;28;20128;-90
2022/10/08 03:23:23;;;;;;;8.02;2.40;;;12.30;99.90;;;;;;5053921;28;20071;-90
2022/10/08 03:25:48;;;;;;;7.90;2.53;;;12.20;99.90;;;;;;5054056;28;20072;-90
2022/10/08 03:28:14;;;;;;;7.85;2.50;;;12.10;99.90;;;;;;5070328;28;20075;-91
2022/10/08 03:30:39;;;;;;;9.43;2.38;;;12.10;99.90;;;;;;5070593;28;20045;-90
2022/10/08 03:33:05;;;;;;;11.52;3.90;;;12.00;99.90;;;;;;5069291;28;20051;-90
2022/10/08 03:35:31;;;;;;;7.60;2.28;;;12.10;99.90;;;;;;5069290;28;20036;-90
2022/10/08 03:37:56;;;;;;;8.23;2.50;;;12.00;99.90;;;;;;5070151;28;20040;-90
2022/10/08 03:40:22;;;;;;;7.65;2.40;;;11.90;99.90;;;;;;5070296;28;20032;-90
2022/10/08 03:42:47;;;;;;;6.82;2.28;;;11.90;99.90;;;;;;5053088;28;20051;-90
2022/10/08 03:45:13;;;;;;;7.63;2.30;;;11.80;99.90;;;;;;5070200;28;20059;-90
2022/10/08 03:47:38;;;;;;;7.22;2.20;;;11.80;99.90;;;;;;5070299;28;20090;-90
2022/10/08 03:50:04;;;;;;;9.20;2.50;;;11.70;99.90;;;;;;5070149;28;20048;-90
2022/10/08 03:52:30;;;;;;;7.53;2.78;;;11.70;99.90;;;;;;5069617;28;20048;-90
2022/10/08 03:54:56;;;;;;;10.55;2.50;;;11.70;99.90;;;;;;5070619;28;20464;-90
2022/10/08 03:57:22;;;;;;;7.82;2.72;;;11.60;99.90;;;;;;5071392;28;20553;-91
2022/10/08 03:59:47;;;;;;;7.97;3.03;;;11.60;99.90;;;;;;5070635;28;20043;-90
2022/10/08 04:02:13;;;;;;;8.43;2.97;;;11.60;99.90;;;;;;5052373;28;20495;-91
2022/10/08 04:04:39;;;;;;;11.20;3.00;;;11.50;99.90;;;;;;5072601;28;20174;-90
2022/10/08 04:07:04;;;;;;;8.15;2.60;;;11.50;99.90;;;;;;5074233;28;20131;-90
2022/10/08 04:09:30;;;;;;;9.10;3.17;;;11.50;99.90;;;;;;5074067;28;20044;-90
2022/10/08 04:11:55;;;;;;;11.02;4.50;;;11.50;99.90;;;;;;5073927;28;20588;-90
2022/10/08 04:14:21;;;;;;;7.57;2.60;;;11.50;99.90;;;;;;5057854;28;20544;-90
2022/10/08 04:16:47;;;;;;;8.23;2.97;;;11.50;99.90;;;;;;5073502;28;20594;-90
2022/10/08 04:19:13;;;;;;;8.98;3.22;;;11.50;99.90;;;;;;5057084;28;20068;-90
2022/10/08 04:21:38;;;;;;;11.35;3.03;;;11.50;99.90;;;;;;5072782;28;20033;-90
2022/10/08 04:24:04;;;;;;;8.40;2.65;;;11.50;99.90;;;;;;5057464;28;20146;-90
2022/10/08 04:26:30;;;;;;;10.90;3.22;;;11.50;99.90;;;;;;5057201;28;20036;-90
2022/10/08 04:28:55;;;;;;;9.43;3.22;;;11.50;99.90;;;;;;5073885;28;20079;-90
2022/10/08 04:31:22;;;;;;;11.77;5.40;;;11.50;99.90;;;;;;5073573;28;20180;-90
2022/10/08 04:33:49;;;;;;;7.88;2.75;;;11.60;99.90;;;;;;5073509;28;20444;-90
2022/10/08 04:36:20;;;;;;;9.77;3.30;;;11.60;99.90;;;;;;5073651;28;20044;-90
2022/10/08 04:38:47;;;;;;;11.57;3.03;;;11.60;99.90;;;;;;5073703;28;20067;-90
2022/10/08 04:41:22;;;;;;;6.80;3.05;;;11.50;99.90;;;;;;5073357;28;20120;-90
2022/10/08 04:43:48;;;;;;;9.85;3.00;;;11.50;99.90;;;;;;5074129;28;20402;-90
2022/10/08 04:46:16;;;;;;;9.32;3.63;;;11.50;99.90;;;;;;5072782;28;20048;-90
2022/10/08 04:48:51;;;;;;;12.10;3.17;;;11.50;99.90;;;;;;5073183;28;20044;-90
2022/10/08 04:51:17;;;;;;;9.80;3.63;;;11.50;99.90;;;;;;5073238;28;20048;-90
2022/10/08 04:53:43;;;;;;;9.90;3.25;;;11.50;99.90;;;;;;5056840;28;20076;-90
2022/10/08 04:56:13;;;;;;;10.13;3.55;;;11.50;99.90;;;;;;5073372;28;20087;-90
2022/10/08 04:58:40;;;;;;;13.15;3.35;;;11.50;99.90;;;;;;5056751;28;20394;-90
2022/10/08 05:01:07;;;;;;;11.48;3.40;;;11.60;99.90;;;;;;5072723;28;20032;-90
2022/10/08 05:03:41;;;;;;;9.88;3.20;;;11.60;99.90;;;;;;5073168;28;20036;-90
2022/10/08 05:06:08;;;;;;;9.93;3.45;;;11.60;99.90;;;;;;5073534;28;20044;-90
2022/10/08 05:08:33;;;;;;;10.20;3.45;;;11.60;99.90;;;;;;5073005;28;20517;-90
2022/10/08 05:10:59;;;;;;;11.55;3.45;;;11.60;99.90;;;;;;5072436;28;20080;-90
2022/10/08 05:13:25;;;;;;;12.27;3.55;;;11.70;99.90;;;;;;5073012;28;20045;-90
2022/10/08 05:15:51;;;;;;;8.85;3.60;;;11.60;99.90;;;;;;5055829;28;20036;-90
2022/10/08 05:18:16;;;;;;;8.18;3.00;;;11.70;99.90;;;;;;5072541;28;20040;-90
2022/10/08 05:20:42;;;;;;;10.82;3.13;;;11.60;99.90;;;;;;5072945;28;20036;-90
2022/10/08 05:23:07;;;;;;;8.63;2.97;;;11.60;99.90;;;;;;5072740;28;20090;-90
2022/10/08 05:25:34;;;;;;;9.15;2.72;;;11.60;99.90;;;;;;5072951;28;20505;-90
2022/10/08 05:28:01;;;;;;;7.55;2.28;;;11.60;99.90;;;;;;5072982;28;20040;-90
2022/10/08 05:30:26;;;;;;;11.88;2.95;;;11.60;99.90;;;;;;5072787;28;20044;-90
2022/10/08 05:32:52;;;;;;;11.38;2.95;;;11.50;99.90;;;;;;5072432;28;20643;-90
2022/10/08 05:35:17;;;;;;;8.45;4.05;;;11.60;99.90;;;;;;5072484;28;20043;-90
2022/10/08 05:37:43;;;;;;;9.90;2.85;;;11.60;99.90;;;;;;5072232;28;20115;-90
2022/10/08 05:40:09;;;;;;;8.25;2.38;;;11.60;99.90;;;;;;5072230;28;20032;-90
2022/10/08 05:42:35;;;;;;;7.80;2.50;;;11.60;99.90;;;;;;5072281;28;20048;-90
2022/10/08 05:45:00;;;;;;;9.27;2.58;;;11.60;99.90;;;;;;5055274;28;20051;-90
2022/10/08 05:47:26;;;;;;;8.63;2.60;;;11.60;99.90;;;;;;5071884;28;20044;-90
2022/10/08 05:49:51;;;;;;;9.15;2.90;;;11.60;99.90;;;;;;5072218;28;20086;-90
2022/10/08 05:52:17;;;;;;;7.82;2.35;;;11.60;99.90;;;;;;5055706;28;20082;-90
2022/10/08 05:54:43;;;;;;;9.95;2.88;;;11.60;99.90;;;;;;5072521;28;20674;-90
2022/10/08 05:57:08;;;;;;;9.95;2.92;;;11.60;99.90;;;;;;5072384;28;20504;-90
2022/10/08 05:59:34;;;;;;;11.80;2.78;;;11.50;99.90;;;;;;5071900;28;20041;-90
2022/10/08 06:01:59;;;;;;;8.75;2.88;;;11.50;99.90;;;;;;5072131;28;20041;-90
2022/10/08 06:04:25;;;;;;;10.13;3.13;;;11.40;99.90;;;;;;5055498;28;20723;-90
2022/10/08 06:06:50;;;;;;;11.48;2.92;;;11.40;99.90;;;;;;5071968;28;20115;-90
2022/10/08 06:09:18;;;;;;;7.78;2.72;;;11.40;99.90;;;;;;5071890;28;20032;-90
2022/10/08 06:11:45;;;;;;;11.68;3.28;;;11.30;99.90;;;;;;5071522;28;20165;-90
2022/10/08 06:14:13;;;;;;;11.50;2.92;;;11.30;99.90;;;;;;5071782;28;20086;-90
2022/10/08 06:16:39;;;;;;;10.30;3.03;;;11.30;99.90;;;;;;5072188;28;20041;-89
2022/10/08 06:19:06;;;;;;;9.10;2.85;;;11.20;99.90;;;;;;5071756;28;20048;-90
2022/10/08 06:21:32;;;;;;;10.88;3.45;;;11.20;99.90;;;;;;5071583;28;20046;-89
2022/10/08 06:24:01;;;;;;;9.63;2.97;;;11.20;99.90;;;;;;5071853;28;20090;-90
2022/10/08 06:26:29;;;;;;;10.18;3.28;;;11.20;99.90;;;;;;5070508;28;20555;-90
2022/10/08 06:28:55;;;;;;;12.73;5.32;;;11.20;99.90;;;;;;5071458;28;20062;-90
2022/10/08 06:31:21;;;;;;;13.52;3.78;;;11.20;99.90;;;;;;5053321;28;20036;-90
2022/10/08 06:33:46;;;;;;;9.55;2.72;;;11.20;99.90;;;;;;5070477;28;20045;-90
2022/10/08 06:36:18;;;;;;;8.63;3.03;;;11.30;99.90;;;;;;5071599;28;20137;-90
2022/10/08 06:38:55;;;;;;;10.02;3.67;;;11.20;99.90;;;;;;5055151;28;20036;-90
2022/10/08 06:41:21;;;;;;;8.80;3.53;;;11.30;99.90;;;;;;5070568;28;20486;-90
2022/10/08 06:43:47;;;;;;;13.65;3.53;;;11.30;99.90;;;;;;5071434;28;20131;-90
2022/10/08 06:46:12;;;;;;;11.13;3.60;;;11.30;99.90;;;;;;5070576;28;20076;-90
2022/10/08 06:48:38;;;;;;;10.30;3.40;;;11.30;99.90;;;;;;5053077;28;20079;-90
2022/10/08 06:51:13;;;;;;;14.88;4.00;;;11.30;99.90;;;;;;5054471;28;20124;-90
2022/10/08 06:53:40;;;;;;;11.85;3.35;;;11.40;99.90;;;;;;5071022;28;20040;-90
2022/10/08 06:56:13;;;;;;;8.80;3.85;;;11.40;99.90;;;;;;5070763;28;20052;-90
2022/10/08 06:58:40;;;;;;;13.35;4.38;;;11.40;99.90;;;;;;5070920;28;20646;-91
2022/10/08 07:01:08;;;;;;;11.70;4.07;;;11.40;99.90;;;;;;5070855;28;20514;-90
2022/10/08 07:03:35;;;;;;;11.38;4.20;;;11.40;99.90;;;;;;5070997;28;20048;-90
2022/10/08 07:06:08;;;;;;;13.70;3.75;;;11.50;99.90;;;;;;5054349;28;20478;-91
2022/10/08 07:08:37;;;;;;;12.23;4.55;;;11.40;99.90;;;;;;5070259;28;20066;-90
2022/10/08 07:11:15;;;;;;;15.20;4.30;;;11.50;99.90;;;;;;5052867;28;20055;-90
2022/10/08 07:13:42;;;;;;;12.80;3.85;;;11.50;99.90;;;;;;5069387;28;20045;-90
2022/10/08 07:16:09;;;;;;;14.27;4.20;;;11.50;99.90;;;;;;5069110;28;20036;-89
2022/10/08 07:18:36;;;;;;;11.20;4.00;;;11.60;99.90;;;;;;5068422;28;20036;-89
2022/10/08 07:21:03;;;;;;;12.80;4.25;;;11.60;99.90;;;;;;5069276;28;20198;-90
2022/10/08 07:23:29;;;;;;;12.13;4.05;;;11.70;99.90;;;;;;5069415;28;20041;-90
2022/10/08 07:25:56;;;;;;;12.30;4.10;;;11.80;99.90;;;;;;5070116;28;20045;-90
2022/10/08 07:28:23;;;;;;;13.85;4.93;;;11.80;99.90;;;;;;5054044;28;20048;-90
2022/10/08 07:30:49;;;;;;;12.13;3.78;;;11.80;99.90;;;;;;5070171;28;20123;-90
2022/10/08 07:33:14;;;;;;;14.80;4.65;;;11.90;99.90;;;;;;5070158;28;20144;-90
2022/10/08 07:35:40;;;;;;;13.20;4.25;;;11.90;99.90;;;;;;5070568;28;20127;-89
2022/10/08 07:38:06;;;;;;;12.20;4.38;;;11.90;99.90;;;;;;5053861;28;20460;-90
2022/10/08 07:40:34;;;;;;;14.88;7.03;;;12.00;99.90;;;;;;5053484;28;20032;-90
2022/10/08 07:43:01;;;;;;;13.93;4.63;;;12.10;99.90;;;;;;5053588;28;20040;-90
2022/10/08 07:45:26;;;;;;;13.32;4.65;;;12.10;99.90;;;;;;5070036;28;20049;-90
2022/10/08 07:47:52;;;;;;;13.55;3.92;;;12.10;99.90;;;;;;5052368;28;20072;-90
2022/10/08 07:50:17;;;;;;;12.70;3.50;;;12.20;99.90;;;;;;5070272;28;20044;-90
2022/10/08 07:52:43;;;;;;;11.52;3.30;;;12.30;99.90;;;;;;5069995;28;20043;-90
2022/10/08 07:55:09;;;;;;;15.57;3.65;;;12.30;99.90;;;;;;5069971;28;20039;-90
2022/10/08 07:57:34;;;;;;;14.68;5.75;;;12.40;99.90;;;;;;5070341;28;20036;-90
2022/10/08 08:00:00;;;;;;;10.60;3.67;;;12.40;99.90;;;;;;5070321;28;20036;-90
2022/10/08 08:02:25;;;;;;;13.32;3.60;;;12.40;99.90;;;;;;5069531;28;20051;-90
2022/10/08 08:04:51;;;;;;;12.98;3.45;;;12.50;99.90;;;;;;5069980;28;20044;-90
2022/10/08 08:07:16;;;;;;;14.40;3.53;;;12.60;99.90;;;;;;5070184;28;20068;-90
2022/10/08 08:09:42;;;;;;;13.75;3.38;;;12.60;99.90;;;;;;5066839;28;20041;-90
2022/10/08 08:12:07;;;;;;;14.23;4.00;;;12.70;99.90;;;;;;5069437;28;20053;-90
2022/10/08 08:14:33;;;;;;;12.57;2.67;;;12.80;99.90;;;;;;5069834;28;20490;-90
2022/10/08 08:16:59;;;;;;;12.48;2.75;;;12.90;99.90;;;;;;5069027;28;20044;-89
2022/10/08 08:19:26;;;;;;;11.10;2.70;;;13.00;99.90;;;;;;5053130;28;20051;-90
2022/10/08 08:21:51;;;;;;;17.35;3.63;;;13.00;99.90;;;;;;5068957;28;20055;-91
2022/10/08 08:24:17;;;;;;;14.75;2.80;;;13.10;99.90;;;;;;5069207;28;20516;-91
2022/10/08 08:26:42;;;;;;;12.13;3.55;;;13.20;99.90;;;;;;5069624;28;20040;-91
2022/10/08 08:29:16;;;;;;;8.88;2.60;;;13.30;99.90;;;;;;5052702;28;20099;-90
2022/10/08 08:31:47;;;;;;;8.43;1.75;;;13.30;99.90;;;;;;5052076;28;20047;-90
2022/10/08 08:34:15;;;;;;;8.02;1.98;;;13.40;99.90;;;;;;5052619;28;20040;-90
2022/10/08 08:36:43;;;;;;;12.75;3.00;;;13.40;99.90;;;;;;5053133;28;20059;-90
2022/10/08 08:39:16;;;;;;;8.52;1.92;;;13.50;99.90;;;;;;5069152;28;20058;-90
2022/10/08 08:42:01;;;;;;;9.00;2.15;;;13.60;99.90;;;;;;5052446;28;20517;-90
2022/10/08 08:44:35;;;;;;;15.95;2.70;;;13.60;99.90;;;;;;5069195;28;20505;-90
2022/10/08 08:47:12;;;;;;;7.07;1.80;;;13.80;99.90;;;;;;5051338;28;20067;-90
2022/10/08 08:50:04;;;;;;;10.75;1.55;;;13.80;99.90;;;;;;5070032;28;20036;-91
2022/10/08 08:52:35;;;;;;;12.35;2.50;;;13.90;99.90;;;;;;5071802;28;20509;-90
2022/10/08 08:55:01;;;;;;;9.05;1.60;;;14.00;99.90;;;;;;5072870;28;20119;-90
2022/10/08 08:57:36;;;;;;;11.40;2.70;;;14.10;99.90;;;;;;5056191;28;20127;-90
2022/10/08 09:00:23;;;;;;;8.80;1.65;;;14.20;99.90;;;;;;5055111;28;20039;-90
2022/10/08 09:02:58;;;;;;;11.25;2.17;;;14.20;99.90;;;;;;5069740;28;20048;-90
2022/10/08 09:05:27;;;;;;;11.43;1.60;;;14.30;99.90;;;;;;5053934;28;20097;-90
2022/10/08 09:08:10;;;;;;;12.55;2.50;;;14.30;99.90;;;;;;5055345;28;20078;-90
2022/10/08 09:10:39;;;;;;;;;;;14.40;99.90;;;;;;5073081;28;20044;-90
2022/10/08 09:13:14;;;;;;;6.68;1.23;;;14.30;99.90;;;;;;5072380;28;19963;-90
2022/10/08 09:15:40;;;;;;;10.82;2.42;;;14.30;99.90;;;;;;5072303;28;20547;-91
2022/10/08 09:18:10;;;;;;;10.57;1.50;;;14.50;99.90;;;;;;5072699;28;20071;-91
2022/10/08 09:20:38;;;;;;;11.45;2.20;;;14.50;99.90;;;;;;5055860;28;20041;-90
2022/10/08 09:23:12;;;;;;;7.15;1.52;;;14.60;99.90;;;;;;5071854;28;20506;-90
2022/10/08 09:25:39;;;;;;;8.75;1.90;;;14.70;99.90;;;;;;5055592;28;20131;-91
2022/10/08 09:28:05;;;;;;;8.60;1.58;;;14.70;99.90;;;;;;5055735;28;20421;-91
2022/10/08 09:30:36;;;;;;;9.93;2.13;;;14.70;99.90;;;;;;5055398;28;20497;-90
2022/10/08 09:33:15;;;;;;;8.32;1.42;;;14.90;99.90;;;;;;5071824;28;20486;-90
2022/10/08 09:35:50;;;;;;;11.18;2.03;;;14.90;99.90;;;;;;5072340;28;20036;-91
2022/10/08 09:38:25;;;;;;;10.98;2.03;;;15.00;99.90;;;;;;5071969;28;20036;-91
2022/10/08 09:41:05;;;;;;;9.45;1.58;;;15.10;99.90;;;;;;5071646;28;20040;-91
2022/10/08 09:43:33;;;;;;;6.65;1.48;;;15.10;99.90;;;;;;5071352;28;20047;-91
2022/10/08 09:46:01;;;;;;;8.18;1.88;;;15.10;99.90;;;;;;5054090;28;20028;-91
2022/10/08 09:48:29;;;;;;;8.20;1.88;;;15.10;99.90;;;;;;5054418;28;20040;-90
2022/10/08 09:51:12;;;;;;;10.52;2.35;;;15.10;99.90;;;;;;5071688;28;20428;-90
2022/10/08 09:53:48;;;;;;;6.63;1.27;;;15.30;99.90;;;;;;5071282;28;20033;-90
2022/10/08 09:56:25;;;;;;;9.02;1.52;;;15.20;99.90;;;;;;5071543;28;20029;-91
2022/10/08 09:58:58;;;;;;;9.95;1.60;;;15.00;99.90;;;;;;5072282;28;20128;-91
2022/10/08 10:01:24;;;;;;;7.40;1.42;;;15.00;99.90;;;;;;5070415;28;20131;-90
2022/10/08 10:04:01;;;;;;;10.30;1.58;;;14.90;99.90;;;;;;5072219;28;20497;-90
2022/10/08 10:06:36;;;;;;;8.63;1.75;;;15.00;99.90;;;;;;5068558;28;20115;-90
2022/10/08 10:09:10;;;;;;;6.85;0.95;;;14.90;99.90;;;;;;5071134;28;20097;-90
2022/10/08 10:11:40;;;;;;;9.50;1.80;;;14.90;99.90;;;;;;5054678;28;20140;-90
2022/10/08 10:14:27;;;;;;;8.02;1.35;;;15.00;99.90;;;;;;5070829;28;20127;-90
2022/10/08 10:17:01;;;;;;;10.95;2.60;;;15.30;99.90;;;;;;5071759;28;20050;-90
2022/10/08 10:19:35;;;;;;;9.88;2.08;;;15.50;99.90;;;;;;5071694;28;20051;-91
2022/10/08 10:22:08;;;;;;;9.02;1.67;;;15.80;99.90;;;;;;5071089;28;20034;-91
2022/10/08 10:25:15;;;;;;;7.70;1.27;;;15.80;99.90;;;;;;5054623;28;20048;-91
2022/10/08 10:27:50;;;;;;;10.02;1.90;;;15.80;99.90;;;;;;5054493;28;20041;-91
2022/10/08 10:30:21;;;;;;;8.10;1.73;;;15.80;99.90;;;;;;5053750;28;20094;-91
2022/10/08 10:33:17;;;;;;;10.85;1.73;;;15.90;99.90;;;;;;5070824;28;20037;-91
2022/10/08 10:35:58;;;;;;;9.68;1.85;;;16.00;99.90;;;;;;5070586;28;20071;-90
2022/10/08 10:38:34;;;;;;;7.88;2.00;;;16.10;99.90;;;;;;5070820;28;20040;-91
2022/10/08 10:41:00;;;;;;;6.78;1.33;;;16.30;99.90;;;;;;5053997;28;20041;-91
2022/10/08 10:43:36;;;;;;;7.78;1.60;;;16.40;99.90;;;;;;5053935;28;20044;-91
2022/10/08 10:46:27;;;;;;;8.38;1.92;;;16.50;99.90;;;;;;5053697;28;20119;-91
2022/10/08 10:48:53;;;;;;;7.65;1.58;;;16.60;99.90;;;;;;5070923;28;20467;-91
2022/10/08 10:51:22;;;;;;;8.38;1.50;;;16.70;99.90;;;;;;5053222;28;20383;-90
2022/10/08 10:54:03;;;;;;;7.97;1.33;;;16.80;99.90;;;;;;5069952;28;20037;-91
2022/10/08 10:56:46;;;;;;;11.10;1.65;;;16.90;99.90;;;;;;5070960;28;20045;-91
2022/10/08 10:59:27;;;;;;;9.13;1.70;;;17.10;99.90;;;;;;5070321;28;20539;-91
2022/10/08 11:01:58;;;;;;;8.50;1.63;;;16.70;99.90;;;;;;5051960;28;20649;-90
2022/10/08 11:04:54;;;;;;;7.15;1.48;;;16.40;99.90;;;;;;5070652;28;20127;-91
2022/10/08 11:07:36;;;;;;;7.68;1.27;;;16.20;99.90;;;;;;5070276;28;20543;-90
2022/10/08 11:10:05;;;;;;;5.32;1.10;;;15.90;99.90;;;;;;5070309;28;20040;-90
2022/10/08 11:12:48;;;;;;;7.72;1.42;;;15.70;99.90;;;;;;5069477;28;20048;-90
2022/10/08 11:15:23;;;;;;;9.85;1.77;;;15.50;99.90;;;;;;5069923;28;20048;-90
2022/10/08 11:18:31;;;;;;;10.57;1.77;;;15.40;99.90;;;;;;5053989;28;20643;-90
2022/10/08 11:21:11;;;;;;;11.07;1.80;;;15.20;99.90;;;;;;4976006;28;20119;-90
2022/10/08 11:23:56;;;;;;;6.55;1.38;;;15.10;99.90;;;;;;4976681;28;20062;-90
2022/10/08 11:26:47;;;;;;;8.23;1.85;;;15.00;99.90;;;;;;4993221;28;20120;-90
2022/10/08 11:29:50;;;;;;;9.50;1.70;;;15.20;99.90;;;;;;4993101;28;20640;-90
2022/10/08 11:32:17;;;;;;;8.00;1.23;;;15.40;99.90;;;;;;4991683;28;20064;-91
2022/10/08 11:34:49;;;;;;;9.90;1.90;;;15.60;99.90;;;;;;4993101;28;20072;-90
2022/10/08 11:37:37;;;;;;;9.48;1.33;;;15.80;99.90;;;;;;4992372;28;20396;-90
2022/10/08 11:40:44;;;;;;;10.18;2.03;;;15.90;99.90;;;;;;4993037;28;20412;-90
2022/10/08 11:43:32;;;;;;;7.97;1.70;;;16.20;99.90;;;;;;4992632;28;20045;-90
2022/10/08 11:46:21;;;;;;;9.50;1.80;;;16.30;99.90;;;;;;4992896;28;20077;-91
2022/10/08 11:48:47;;;;;;;8.13;2.00;;;16.50;99.90;;;;;;4976086;28;20038;-91
2022/10/08 11:51:18;;;;;;;7.10;1.25;;;16.60;99.90;;;;;;4975805;28;20092;-90
2022/10/08 11:54:11;;;;;;;9.38;1.90;;;16.50;99.90;;;;;;4990879;28;20482;-90
2022/10/08 11:56:50;;;;;;;6.93;1.48;;;16.60;99.90;;;;;;5010409;28;20048;-91
2022/10/08 11:59:29;;;;;;;9.65;1.80;;;16.60;99.90;;;;;;5069793;28;20048;-91
2022/10/08 12:01:57;;;;;;;10.93;2.10;;;16.70;99.90;;;;;;5069764;28;20103;-91
2022/10/08 12:04:30;;;;;;;13.00;2.60;;;16.80;99.90;;;;;;5069505;28;20043;-90
2022/10/08 12:07:04;;;;;;;;;;;16.80;99.90;;;;;;5053339;28;20036;-91
2022/10/08 12:10:05;;;;;;;10.38;1.90;;;16.80;99.90;;;;;;5051469;28;20027;-91
2022/10/08 12:12:49;;;;;;;9.18;2.03;;;17.00;99.90;;;;;;5069297;28;20070;-90
2022/10/08 12:15:24;;;;;;;9.00;1.75;;;17.10;99.90;;;;;;5070058;28;20040;-90
2022/10/08 12:17:58;;;;;;;9.55;2.13;;;17.30;99.90;;;;;;5053410;28;20127;-91
2022/10/08 12:20:32;;;;;;;10.23;1.90;;;17.50;99.90;;;;;;5069824;28;20083;-90
2022/10/08 12:23:04;;;;;;;12.05;2.00;;;17.70;99.90;;;;;;5052711;28;20482;-91
2022/10/08 12:25:31;;;;;;;13.00;1.35;;;17.80;99.90;;;;;;5055364;28;20089;-91
2022/10/08 12:28:23;;;;;;;7.75;1.60;;;17.90;99.10;;;;;;5073695;28;20123;-91
2022/10/08 12:30:54;;;;;;;10.13;1.85;;;18.10;94.70;;;;;;5055797;28;20032;-91
2022/10/08 12:33:21;;;;;;;13.10;1.90;;;18.20;96.80;;;;;;5055754;28;20028;-91
2022/10/08 12:36:12;;;;;;;8.70;1.50;;;18.40;92.00;;;;;;5073698;28;20036;-91
2022/10/08 12:38:51;;;;;;;7.32;1.60;;;18.30;85.60;;;;;;5057185;28;20119;-91
2022/10/08 12:41:26;;;;;;;9.48;1.85;;;18.30;84.10;;;;;;5073401;28;20515;-91
2022/10/08 12:44:04;;;;;;;9.43;1.70;;;18.30;81.20;;;;;;5072288;28;20497;-91
2022/10/08 12:46:37;;;;;;;7.38;1.42;;;18.40;80.50;;;;;;5072848;28;20040;-91
2022/10/08 12:49:23;;;;;;;7.60;1.55;;;18.60;79.80;;;;;;5073766;28;20036;-91
2022/10/08 12:52:12;;;;;;;7.93;1.63;;;18.60;80.40;;;;;;5072964;28;20119;-90
2022/10/08 12:54:47;;;;;;;10.40;1.77;;;19.10;78.00;;;;;;5073538;28;20040;-91
2022/10/08 12:57:19;;;;;;;8.30;1.83;;;19.50;69.30;;;;;;5073336;28;20036;-91
2022/10/08 12:59:46;;;;;;;7.97;1.73;;;20.50;68.30;;;;;;5072549;28;20040;-91
2022/10/08 13:02:26;;;;;;;9.10;1.50;;;21.80;63.90;;;;;;5055852;28;20039;-91
2022/10/08 13:04:52;;;;;;;9.43;1.48;;;22.60;62.30;;;;;;5072917;28;20037;-91